sensor_id;sensor_type;location;lat;lon;timestamp;P1;durP1;ratioP1;P2;durP2;ratioP2
64291;SDS011;50628;51.008;13.658;2022-10-16T00:00:41;12.47;;;6.50;;
64291;SDS011;50628;51.008;13.658;2022-10-16T00:05:43;10.70;;;5.83;;
64291;SDS011;50628;51.008;13.658;2022-10-16T00:10:47;6.87;;;5.00;;
64291;SDS011;50628;51.008;13.658;2022-10-16T00:15:48;8.93;;;6.40;;
64291;SDS011;50628;51.008;13.658;2022-10-16T00:20:51;11.10;;;6.30;;
64291;SDS011;50628;51.008;13.658;2022-10-16T00:25:57;10.53;;;6.37;;
64291;SDS011;50628;51.008;13.658;2022-10-16T00:31:02;9.17;;;6.40;;
64291;SDS011;50628;51.008;13.658;2022-10-16T00:36:06;7.20;;;4.80;;
64291;SDS011;50628;51.008;13.658;2022-10-16T00:41:11;8.07;;;6.00;;
64291;SDS011;50628;51.008;13.658;2022-10-16T00:46:15;7.47;;;5.53;;
64291;SDS011;50628;51.008;13.658;2022-10-16T00:51:23;7.97;;;6.13;;
64291;SDS011;50628;51.008;13.658;2022-10-16T00:56:31;9.13;;;6.27;;
64291;SDS011;50628;51.008;13.658;2022-10-16T01:01:33;11.27;;;5.97;;
64291;SDS011;50628;51.008;13.658;2022-10-16T01:06:36;7.00;;;5.57;;
64291;SDS011;50628;51.008;13.658;2022-10-16T01:11:48;6.00;;;5.40;;
64291;SDS011;50628;51.008;13.658;2022-10-16T01:16:57;5.60;;;4.53;;
64291;SDS011;50628;51.008;13.658;2022-10-16T01:22:06;6.17;;;4.57;;
64291;SDS011;50628;51.008;13.658;2022-10-16T01:27:12;8.93;;;5.30;;
64291;SDS011;50628;51.008;13.658;2022-10-16T01:32:16;6.17;;;5.13;;
64291;SDS011;50628;51.008;13.658;2022-10-16T01:37:32;7.73;;;5.73;;
64291;SDS011;50628;51.008;13.658;2022-10-16T01:42:39;13.63;;;6.17;;
64291;SDS011;50628;51.008;13.658;2022-10-16T01:47:43;6.57;;;4.27;;
64291;SDS011;50628;51.008;13.658;2022-10-16T01:52:47;5.33;;;3.77;;
64291;SDS011;50628;51.008;13.658;2022-10-16T01:57:53;5.37;;;4.37;;
64291;SDS011;50628;51.008;13.658;2022-10-16T02:02:56;10.03;;;5.67;;
64291;SDS011;50628;51.008;13.658;2022-10-16T02:08:02;11.60;;;5.90;;
64291;SDS011;50628;51.008;13.658;2022-10-16T02:13:06;9.27;;;5.60;;
64291;SDS011;50628;51.008;13.658;2022-10-16T02:18:12;9.97;;;5.70;;
64291;SDS011;50628;51.008;13.658;2022-10-16T02:23:16;6.33;;;4.60;;
64291;SDS011;50628;51.008;13.658;2022-10-16T02:28:26;5.43;;;3.97;;
64291;SDS011;50628;51.008;13.658;2022-10-16T02:33:34;7.80;;;5.17;;
64291;SDS011;50628;51.008;13.658;2022-10-16T02:38:39;6.93;;;5.03;;
64291;SDS011;50628;51.008;13.658;2022-10-16T02:43:43;8.03;;;5.27;;
64291;SDS011;50628;51.008;13.658;2022-10-16T02:48:45;5.90;;;4.40;;
64291;SDS011;50628;51.008;13.658;2022-10-16T02:53:47;7.67;;;4.50;;
64291;SDS011;50628;51.008;13.658;2022-10-16T02:58:50;5.13;;;4.60;;
64291;SDS011;50628;51.008;13.658;2022-10-16T03:03:52;9.93;;;5.90;;
64291;SDS011;50628;51.008;13.658;2022-10-16T03:08:54;7.43;;;5.73;;
64291;SDS011;50628;51.008;13.658;2022-10-16T03:13:57;9.33;;;4.87;;
64291;SDS011;50628;51.008;13.658;2022-10-16T03:18:59;7.73;;;4.27;;
64291;SDS011;50628;51.008;13.658;2022-10-16T03:24:01;6.47;;;3.80;;
64291;SDS011;50628;51.008;13.658;2022-10-16T03:29:04;6.63;;;5.13;;
64291;SDS011;50628;51.008;13.658;2022-10-16T03:34:06;8.27;;;4.73;;
64291;SDS011;50628;51.008;13.658;2022-10-16T03:39:08;9.33;;;5.73;;
64291;SDS011;50628;51.008;13.658;2022-10-16T03:44:11;7.77;;;5.23;;
64291;SDS011;50628;51.008;13.658;2022-10-16T03:49:13;4.60;;;4.17;;
64291;SDS011;50628;51.008;13.658;2022-10-16T03:54:15;5.33;;;4.00;;
64291;SDS011;50628;51.008;13.658;2022-10-16T03:59:18;6.97;;;4.93;;
64291;SDS011;50628;51.008;13.658;2022-10-16T04:04:20;7.30;;;5.33;;
64291;SDS011;50628;51.008;13.658;2022-10-16T04:09:22;11.87;;;5.50;;
64291;SDS011;50628;51.008;13.658;2022-10-16T04:14:25;5.03;;;4.53;;
64291;SDS011;50628;51.008;13.658;2022-10-16T04:19:26;5.77;;;5.07;;
64291;SDS011;50628;51.008;13.658;2022-10-16T04:24:28;7.57;;;5.40;;
64291;SDS011;50628;51.008;13.658;2022-10-16T04:29:31;8.57;;;5.47;;
64291;SDS011;50628;51.008;13.658;2022-10-16T04:34:33;6.40;;;5.80;;
64291;SDS011;50628;51.008;13.658;2022-10-16T04:39:34;7.23;;;5.93;;
64291;SDS011;50628;51.008;13.658;2022-10-16T04:44:37;7.27;;;5.30;;
64291;SDS011;50628;51.008;13.658;2022-10-16T04:49:39;11.97;;;6.03;;
64291;SDS011;50628;51.008;13.658;2022-10-16T04:54:41;6.47;;;5.37;;
64291;SDS011;50628;51.008;13.658;2022-10-16T04:59:46;11.33;;;6.80;;
64291;SDS011;50628;51.008;13.658;2022-10-16T05:04:48;8.63;;;6.43;;
64291;SDS011;50628;51.008;13.658;2022-10-16T05:09:49;9.93;;;5.57;;
64291;SDS011;50628;51.008;13.658;2022-10-16T05:14:53;6.67;;;4.20;;
64291;SDS011;50628;51.008;13.658;2022-10-16T05:19:58;16.23;;;5.70;;
64291;SDS011;50628;51.008;13.658;2022-10-16T05:25:00;10.40;;;6.40;;
64291;SDS011;50628;51.008;13.658;2022-10-16T05:30:03;10.87;;;7.07;;
64291;SDS011;50628;51.008;13.658;2022-10-16T05:35:06;9.03;;;6.37;;
64291;SDS011;50628;51.008;13.658;2022-10-16T05:40:08;11.67;;;7.77;;
64291;SDS011;50628;51.008;13.658;2022-10-16T05:45:12;13.00;;;7.60;;
64291;SDS011;50628;51.008;13.658;2022-10-16T05:50:13;11.17;;;5.60;;
64291;SDS011;50628;51.008;13.658;2022-10-16T05:55:15;10.30;;;5.93;;
64291;SDS011;50628;51.008;13.658;2022-10-16T06:00:18;12.43;;;7.10;;
64291;SDS011;50628;51.008;13.658;2022-10-16T06:05:20;13.90;;;8.57;;
64291;SDS011;50628;51.008;13.658;2022-10-16T06:10:22;12.07;;;8.17;;
64291;SDS011;50628;51.008;13.658;2022-10-16T06:15:25;11.37;;;7.50;;
64291;SDS011;50628;51.008;13.658;2022-10-16T06:20:26;10.47;;;5.93;;
64291;SDS011;50628;51.008;13.658;2022-10-16T06:25:28;5.20;;;4.13;;
64291;SDS011;50628;51.008;13.658;2022-10-16T06:30:31;5.57;;;3.93;;
64291;SDS011;50628;51.008;13.658;2022-10-16T06:35:33;9.07;;;5.43;;
64291;SDS011;50628;51.008;13.658;2022-10-16T06:40:35;8.43;;;6.20;;
64291;SDS011;50628;51.008;13.658;2022-10-16T06:45:38;8.90;;;5.93;;
64291;SDS011;50628;51.008;13.658;2022-10-16T06:50:39;6.90;;;5.07;;
64291;SDS011;50628;51.008;13.658;2022-10-16T06:55:41;9.17;;;6.43;;
64291;SDS011;50628;51.008;13.658;2022-10-16T07:00:44;8.57;;;6.30;;
64291;SDS011;50628;51.008;13.658;2022-10-16T07:05:46;21.30;;;12.43;;
64291;SDS011;50628;51.008;13.658;2022-10-16T07:10:47;15.73;;;10.73;;
64291;SDS011;50628;51.008;13.658;2022-10-16T07:15:51;15.07;;;10.10;;
64291;SDS011;50628;51.008;13.658;2022-10-16T07:20:52;18.47;;;10.90;;
64291;SDS011;50628;51.008;13.658;2022-10-16T07:25:54;16.17;;;9.83;;
64291;SDS011;50628;51.008;13.658;2022-10-16T07:31:01;15.50;;;8.20;;
64291;SDS011;50628;51.008;13.658;2022-10-16T07:36:03;17.57;;;9.57;;
64291;SDS011;50628;51.008;13.658;2022-10-16T07:41:07;26.10;;;16.57;;
64291;SDS011;50628;51.008;13.658;2022-10-16T07:46:11;19.17;;;11.37;;
64291;SDS011;50628;51.008;13.658;2022-10-16T07:51:15;20.47;;;12.43;;
64291;SDS011;50628;51.008;13.658;2022-10-16T07:56:19;15.90;;;9.50;;
64291;SDS011;50628;51.008;13.658;2022-10-16T08:01:24;14.87;;;8.00;;
64291;SDS011;50628;51.008;13.658;2022-10-16T08:06:25;15.65;;;8.52;;
64291;SDS011;50628;51.008;13.658;2022-10-16T08:11:27;21.35;;;10.93;;
64291;SDS011;50628;51.008;13.658;2022-10-16T08:16:30;18.67;;;9.48;;
64291;SDS011;50628;51.008;13.658;2022-10-16T08:21:32;12.60;;;6.13;;
64291;SDS011;50628;51.008;13.658;2022-10-16T08:26:34;16.45;;;7.97;;
64291;SDS011;50628;51.008;13.658;2022-10-16T08:31:37;15.95;;;8.48;;
64291;SDS011;50628;51.008;13.658;2022-10-16T08:36:38;11.80;;;6.97;;
64291;SDS011;50628;51.008;13.658;2022-10-16T08:41:53;10.27;;;6.28;;
64291;SDS011;50628;51.008;13.658;2022-10-16T08:47:05;10.05;;;5.90;;
64291;SDS011;50628;51.008;13.658;2022-10-16T08:52:18;8.63;;;4.63;;
64291;SDS011;50628;51.008;13.658;2022-10-16T08:57:20;6.90;;;4.78;;
64291;SDS011;50628;51.008;13.658;2022-10-16T09:02:29;6.18;;;4.28;;
64291;SDS011;50628;51.008;13.658;2022-10-16T09:07:35;2.75;;;1.63;;
64291;SDS011;50628;51.008;13.658;2022-10-16T09:12:45;3.00;;;1.50;;
64291;SDS011;50628;51.008;13.658;2022-10-16T09:17:55;4.13;;;1.00;;
64291;SDS011;50628;51.008;13.658;2022-10-16T09:23:08;4.70;;;0.32;;
64291;SDS011;50628;51.008;13.658;2022-10-16T09:28:15;0.40;;;0.20;;
64291;SDS011;50628;51.008;13.658;2022-10-16T09:33:20;0.20;;;0.20;;
64291;SDS011;50628;51.008;13.658;2022-10-16T09:38:25;0.82;;;0.20;;
64291;SDS011;50628;51.008;13.658;2022-10-16T09:43:32;1.00;;;0.20;;
64291;SDS011;50628;51.008;13.658;2022-10-16T09:48:42;1.27;;;0.20;;
64291;SDS011;50628;51.008;13.658;2022-10-16T09:53:46;3.90;;;0.35;;
64291;SDS011;50628;51.008;13.658;2022-10-16T09:58:49;0.60;;;0.20;;
64291;SDS011;50628;51.008;13.658;2022-10-16T10:03:55;0.70;;;0.40;;
64291;SDS011;50628;51.008;13.658;2022-10-16T10:09:05;2.92;;;0.77;;
64291;SDS011;50628;51.008;13.658;2022-10-16T10:14:17;0.40;;;0.20;;
64291;SDS011;50628;51.008;13.658;2022-10-16T10:19:38;2.58;;;0.32;;
64291;SDS011;50628;51.008;13.658;2022-10-16T10:24:41;3.72;;;0.82;;
64291;SDS011;50628;51.008;13.658;2022-10-16T10:29:46;2.60;;;0.30;;
64291;SDS011;50628;51.008;13.658;2022-10-16T10:35:01;0.30;;;0.20;;
64291;SDS011;50628;51.008;13.658;2022-10-16T10:40:16;0.90;;;0.30;;
64291;SDS011;50628;51.008;13.658;2022-10-16T10:45:33;3.33;;;0.22;;
64291;SDS011;50628;51.008;13.658;2022-10-16T10:50:45;0.88;;;0.50;;
64291;SDS011;50628;51.008;13.658;2022-10-16T10:55:52;2.85;;;0.30;;
64291;SDS011;50628;51.008;13.658;2022-10-16T11:00:58;1.30;;;0.40;;
64291;SDS011;50628;51.008;13.658;2022-10-16T11:06:07;1.75;;;0.20;;
64291;SDS011;50628;51.008;13.658;2022-10-16T11:11:14;2.25;;;0.50;;
64291;SDS011;50628;51.008;13.658;2022-10-16T11:16:21;3.45;;;0.20;;
64291;SDS011;50628;51.008;13.658;2022-10-16T11:21:30;1.75;;;0.20;;
64291;SDS011;50628;51.008;13.658;2022-10-16T11:26:39;1.95;;;0.25;;
64291;SDS011;50628;51.008;13.658;2022-10-16T11:31:45;0.35;;;0.20;;
64291;SDS011;50628;51.008;13.658;2022-10-16T11:36:53;2.28;;;0.20;;
64291;SDS011;50628;51.008;13.658;2022-10-16T11:41:59;1.92;;;0.43;;
64291;SDS011;50628;51.008;13.658;2022-10-16T11:47:08;1.65;;;0.40;;
64291;SDS011;50628;51.008;13.658;2022-10-16T11:52:19;1.63;;;0.30;;
64291;SDS011;50628;51.008;13.658;2022-10-16T11:57:26;1.42;;;0.30;;
64291;SDS011;50628;51.008;13.658;2022-10-16T12:02:38;1.30;;;0.50;;
64291;SDS011;50628;51.008;13.658;2022-10-16T12:07:51;0.70;;;0.20;;
64291;SDS011;50628;51.008;13.658;2022-10-16T12:13:01;1.67;;;0.60;;
64291;SDS011;50628;51.008;13.658;2022-10-16T12:18:03;2.00;;;0.20;;
64291;SDS011;50628;51.008;13.658;2022-10-16T12:23:06;1.85;;;0.30;;
64291;SDS011;50628;51.008;13.658;2022-10-16T12:28:17;1.52;;;0.20;;
64291;SDS011;50628;51.008;13.658;2022-10-16T12:33:23;3.15;;;0.75;;
64291;SDS011;50628;51.008;13.658;2022-10-16T12:38:28;1.85;;;0.50;;
64291;SDS011;50628;51.008;13.658;2022-10-16T12:43:37;0.70;;;0.20;;
64291;SDS011;50628;51.008;13.658;2022-10-16T12:48:43;1.75;;;0.20;;
64291;SDS011;50628;51.008;13.658;2022-10-16T12:53:57;0.90;;;0.30;;
64291;SDS011;50628;51.008;13.658;2022-10-16T12:59:02;1.00;;;0.40;;
64291;SDS011;50628;51.008;13.658;2022-10-16T13:09:49;1.80;;;0.25;;
64291;SDS011;50628;51.008;13.658;2022-10-16T13:15:16;2.97;;;0.30;;
64291;SDS011;50628;51.008;13.658;2022-10-16T13:20:28;2.42;;;0.25;;
64291;SDS011;50628;51.008;13.658;2022-10-16T13:25:40;2.60;;;0.20;;
64291;SDS011;50628;51.008;13.658;2022-10-16T13:30:56;0.28;;;0.20;;
64291;SDS011;50628;51.008;13.658;2022-10-16T13:35:59;0.70;;;0.30;;
64291;SDS011;50628;51.008;13.658;2022-10-16T13:41:04;0.38;;;0.13;;
64291;SDS011;50628;51.008;13.658;2022-10-16T13:46:15;0.45;;;0.30;;
64291;SDS011;50628;51.008;13.658;2022-10-16T13:51:18;3.03;;;0.30;;
64291;SDS011;50628;51.008;13.658;2022-10-16T13:56:22;1.55;;;0.30;;
64291;SDS011;50628;51.008;13.658;2022-10-16T14:01:28;1.40;;;0.30;;
64291;SDS011;50628;51.008;13.658;2022-10-16T14:06:32;0.30;;;0.30;;
64291;SDS011;50628;51.008;13.658;2022-10-16T14:11:36;0.75;;;0.20;;
64291;SDS011;50628;51.008;13.658;2022-10-16T14:16:46;0.70;;;0.30;;
64291;SDS011;50628;51.008;13.658;2022-10-16T14:21:49;2.65;;;0.20;;
64291;SDS011;50628;51.008;13.658;2022-10-16T14:26:53;1.10;;;0.35;;
64291;SDS011;50628;51.008;13.658;2022-10-16T14:31:57;2.63;;;0.20;;
64291;SDS011;50628;51.008;13.658;2022-10-16T14:37:00;1.83;;;0.40;;
64291;SDS011;50628;51.008;13.658;2022-10-16T14:42:13;0.60;;;0.30;;
64291;SDS011;50628;51.008;13.658;2022-10-16T14:47:18;0.45;;;0.30;;
64291;SDS011;50628;51.008;13.658;2022-10-16T14:52:24;1.77;;;0.38;;
64291;SDS011;50628;51.008;13.658;2022-10-16T14:57:28;3.25;;;0.40;;
64291;SDS011;50628;51.008;13.658;2022-10-16T15:02:33;2.50;;;0.35;;
64291;SDS011;50628;51.008;13.658;2022-10-16T15:07:36;3.40;;;0.40;;
64291;SDS011;50628;51.008;13.658;2022-10-16T15:12:39;1.45;;;0.50;;
64291;SDS011;50628;51.008;13.658;2022-10-16T15:17:41;0.57;;;0.35;;
64291;SDS011;50628;51.008;13.658;2022-10-16T15:22:43;0.82;;;0.47;;
64291;SDS011;50628;51.008;13.658;2022-10-16T15:27:46;4.53;;;0.70;;
64291;SDS011;50628;51.008;13.658;2022-10-16T15:32:48;1.60;;;0.30;;
64291;SDS011;50628;51.008;13.658;2022-10-16T15:37:49;0.75;;;0.40;;
64291;SDS011;50628;51.008;13.658;2022-10-16T15:42:53;4.88;;;0.60;;
64291;SDS011;50628;51.008;13.658;2022-10-16T15:47:54;0.73;;;0.40;;
64291;SDS011;50628;51.008;13.658;2022-10-16T15:52:56;5.95;;;1.27;;
64291;SDS011;50628;51.008;13.658;2022-10-16T15:57:59;9.93;;;1.88;;
64291;SDS011;50628;51.008;13.658;2022-10-16T16:03:01;8.00;;;2.50;;
64291;SDS011;50628;51.008;13.658;2022-10-16T16:08:03;10.02;;;2.60;;
64291;SDS011;50628;51.008;13.658;2022-10-16T16:13:06;12.95;;;2.80;;
64291;SDS011;50628;51.008;13.658;2022-10-16T16:18:08;6.38;;;2.33;;
64291;SDS011;50628;51.008;13.658;2022-10-16T16:23:10;8.15;;;3.17;;
64291;SDS011;50628;51.008;13.658;2022-10-16T16:28:13;11.60;;;3.72;;
64291;SDS011;50628;51.008;13.658;2022-10-16T16:33:15;11.80;;;4.55;;
64291;SDS011;50628;51.008;13.658;2022-10-16T16:38:16;11.20;;;6.18;;
64291;SDS011;50628;51.008;13.658;2022-10-16T16:43:19;7.00;;;1.90;;
64291;SDS011;50628;51.008;13.658;2022-10-16T16:48:24;8.32;;;2.65;;
64291;SDS011;50628;51.008;13.658;2022-10-16T16:53:25;10.65;;;5.95;;
64291;SDS011;50628;51.008;13.658;2022-10-16T16:58:29;10.30;;;2.58;;
64291;SDS011;50628;51.008;13.658;2022-10-16T17:03:31;7.00;;;2.65;;
64291;SDS011;50628;51.008;13.658;2022-10-16T17:08:35;5.28;;;1.75;;
64291;SDS011;50628;51.008;13.658;2022-10-16T17:13:39;6.75;;;2.90;;
64291;SDS011;50628;51.008;13.658;2022-10-16T17:18:41;7.63;;;4.03;;
64291;SDS011;50628;51.008;13.658;2022-10-16T17:23:43;20.10;;;10.18;;
64291;SDS011;50628;51.008;13.658;2022-10-16T17:28:49;25.08;;;12.63;;
64291;SDS011;50628;51.008;13.658;2022-10-16T17:33:52;17.80;;;6.65;;
64291;SDS011;50628;51.008;13.658;2022-10-16T17:38:54;11.48;;;5.47;;
64291;SDS011;50628;51.008;13.658;2022-10-16T17:43:57;11.40;;;6.30;;
64291;SDS011;50628;51.008;13.658;2022-10-16T17:48:59;7.70;;;4.30;;
64291;SDS011;50628;51.008;13.658;2022-10-16T17:54:01;13.25;;;4.70;;
64291;SDS011;50628;51.008;13.658;2022-10-16T17:59:04;6.82;;;3.97;;
64291;SDS011;50628;51.008;13.658;2022-10-16T18:04:07;17.70;;;6.05;;
64291;SDS011;50628;51.008;13.658;2022-10-16T18:09:13;9.57;;;4.28;;
64291;SDS011;50628;51.008;13.658;2022-10-16T18:14:18;11.85;;;4.80;;
64291;SDS011;50628;51.008;13.658;2022-10-16T18:19:20;10.32;;;6.13;;
64291;SDS011;50628;51.008;13.658;2022-10-16T18:24:23;10.75;;;5.35;;
64291;SDS011;50628;51.008;13.658;2022-10-16T18:29:26;10.52;;;5.43;;
64291;SDS011;50628;51.008;13.658;2022-10-16T18:34:28;9.88;;;6.22;;
64291;SDS011;50628;51.008;13.658;2022-10-16T18:39:31;14.80;;;6.40;;
64291;SDS011;50628;51.008;13.658;2022-10-16T18:44:34;13.90;;;5.82;;
64291;SDS011;50628;51.008;13.658;2022-10-16T18:49:39;9.73;;;5.85;;
64291;SDS011;50628;51.008;13.658;2022-10-16T18:54:41;9.35;;;5.97;;
64291;SDS011;50628;51.008;13.658;2022-10-16T18:59:49;14.60;;;6.53;;
64291;SDS011;50628;51.008;13.658;2022-10-16T19:04:50;7.07;;;5.38;;
64291;SDS011;50628;51.008;13.658;2022-10-16T19:09:52;10.50;;;5.60;;
64291;SDS011;50628;51.008;13.658;2022-10-16T19:14:55;6.80;;;5.97;;
64291;SDS011;50628;51.008;13.658;2022-10-16T19:19:57;15.68;;;9.88;;
64291;SDS011;50628;51.008;13.658;2022-10-16T19:24:59;11.43;;;6.40;;
64291;SDS011;50628;51.008;13.658;2022-10-16T19:30:02;8.27;;;4.57;;
64291;SDS011;50628;51.008;13.658;2022-10-16T19:35:04;12.75;;;5.45;;
64291;SDS011;50628;51.008;13.658;2022-10-16T19:40:09;14.38;;;11.77;;
64291;SDS011;50628;51.008;13.658;2022-10-16T19:45:13;10.23;;;5.45;;
64291;SDS011;50628;51.008;13.658;2022-10-16T19:50:14;15.13;;;6.60;;
64291;SDS011;50628;51.008;13.658;2022-10-16T19:55:18;9.73;;;6.43;;
64291;SDS011;50628;51.008;13.658;2022-10-16T20:00:21;10.80;;;6.30;;
64291;SDS011;50628;51.008;13.658;2022-10-16T20:05:23;13.30;;;6.32;;
64291;SDS011;50628;51.008;13.658;2022-10-16T20:10:24;4.90;;;3.70;;
64291;SDS011;50628;51.008;13.658;2022-10-16T20:15:28;12.25;;;5.05;;
64291;SDS011;50628;51.008;13.658;2022-10-16T20:20:29;5.43;;;4.93;;
64291;SDS011;50628;51.008;13.658;2022-10-16T20:25:33;8.60;;;5.82;;
64291;SDS011;50628;51.008;13.658;2022-10-16T20:30:37;8.88;;;5.90;;
64291;SDS011;50628;51.008;13.658;2022-10-16T20:35:41;13.02;;;5.95;;
64291;SDS011;50628;51.008;13.658;2022-10-16T20:40:45;7.05;;;5.57;;
64291;SDS011;50628;51.008;13.658;2022-10-16T20:45:57;8.57;;;5.97;;
64291;SDS011;50628;51.008;13.658;2022-10-16T20:51:08;8.80;;;6.50;;
64291;SDS011;50628;51.008;13.658;2022-10-16T20:56:11;14.45;;;5.38;;
64291;SDS011;50628;51.008;13.658;2022-10-16T21:01:16;7.95;;;4.78;;
64291;SDS011;50628;51.008;13.658;2022-10-16T21:06:20;8.73;;;5.38;;
64291;SDS011;50628;51.008;13.658;2022-10-16T21:11:22;9.32;;;5.15;;
64291;SDS011;50628;51.008;13.658;2022-10-16T21:16:28;8.63;;;4.43;;
64291;SDS011;50628;51.008;13.658;2022-10-16T21:21:30;12.55;;;4.28;;
64291;SDS011;50628;51.008;13.658;2022-10-16T21:26:33;8.65;;;4.57;;
64291;SDS011;50628;51.008;13.658;2022-10-16T21:31:36;5.43;;;4.22;;
64291;SDS011;50628;51.008;13.658;2022-10-16T21:36:39;5.00;;;3.83;;
64291;SDS011;50628;51.008;13.658;2022-10-16T21:41:42;7.97;;;4.43;;
64291;SDS011;50628;51.008;13.658;2022-10-16T21:46:46;6.63;;;5.30;;
64291;SDS011;50628;51.008;13.658;2022-10-16T21:51:49;8.77;;;4.72;;
64291;SDS011;50628;51.008;13.658;2022-10-16T21:56:51;6.95;;;3.30;;
64291;SDS011;50628;51.008;13.658;2022-10-16T22:01:54;9.00;;;4.47;;
64291;SDS011;50628;51.008;13.658;2022-10-16T22:06:56;5.73;;;4.37;;
64291;SDS011;50628;51.008;13.658;2022-10-16T22:11:57;14.47;;;6.17;;
64291;SDS011;50628;51.008;13.658;2022-10-16T22:17:00;7.60;;;5.20;;
64291;SDS011;50628;51.008;13.658;2022-10-16T22:22:02;7.83;;;4.23;;
64291;SDS011;50628;51.008;13.658;2022-10-16T22:27:04;8.67;;;5.60;;
64291;SDS011;50628;51.008;13.658;2022-10-16T22:32:07;9.93;;;5.23;;
64291;SDS011;50628;51.008;13.658;2022-10-16T22:37:09;9.10;;;5.33;;
64291;SDS011;50628;51.008;13.658;2022-10-16T22:42:10;9.30;;;3.43;;
64291;SDS011;50628;51.008;13.658;2022-10-16T22:47:13;7.37;;;4.13;;
64291;SDS011;50628;51.008;13.658;2022-10-16T22:52:16;7.53;;;5.20;;
64291;SDS011;50628;51.008;13.658;2022-10-16T22:57:18;10.83;;;7.00;;
64291;SDS011;50628;51.008;13.658;2022-10-16T23:02:21;6.10;;;2.63;;
64291;SDS011;50628;51.008;13.658;2022-10-16T23:07:22;5.30;;;3.83;;
64291;SDS011;50628;51.008;13.658;2022-10-16T23:12:24;5.53;;;2.20;;
64291;SDS011;50628;51.008;13.658;2022-10-16T23:17:27;6.57;;;4.13;;
64291;SDS011;50628;51.008;13.658;2022-10-16T23:22:29;6.67;;;4.57;;
64291;SDS011;50628;51.008;13.658;2022-10-16T23:27:30;6.00;;;4.60;;
64291;SDS011;50628;51.008;13.658;2022-10-16T23:32:34;6.57;;;3.30;;
64291;SDS011;50628;51.008;13.658;2022-10-16T23:37:35;6.73;;;3.00;;
64291;SDS011;50628;51.008;13.658;2022-10-16T23:42:37;7.07;;;4.10;;
64291;SDS011;50628;51.008;13.658;2022-10-16T23:47:40;6.07;;;3.70;;
64291;SDS011;50628;51.008;13.658;2022-10-16T23:52:42;4.93;;;2.17;;
64291;SDS011;50628;51.008;13.658;2022-10-16T23:57:43;6.60;;;3.03;;
